createdAt,value
2023-04-11T00:01:02.114Z,63.70
2023-04-11T00:03:29.328Z,60.33
2023-04-11T00:05:56.557Z,62.20
2023-04-11T00:08:23.654Z,58.37
2023-04-11T00:10:51.004Z,55.83
2023-04-11T00:13:19.882Z,59.97
2023-04-11T00:15:47.942Z,56.73
2023-04-11T00:18:15.064Z,63.77
2023-04-11T00:20:42.238Z,60.93
2023-04-11T00:23:09.175Z,62.57
2023-04-11T00:25:37.462Z,62.57
2023-04-11T00:28:04.651Z,51.97
2023-04-11T00:30:31.878Z,56.83
2023-04-11T00:32:58.760Z,55.93
2023-04-11T00:35:25.999Z,57.83
2023-04-11T00:37:56.334Z,60.27
2023-04-11T00:40:23.726Z,57.73
2023-04-11T00:42:50.689Z,53.33
2023-04-11T00:45:17.923Z,53.17
2023-04-11T00:47:44.876Z,50.53
2023-04-11T00:50:14.191Z,51.47
2023-04-11T00:52:41.960Z,41.05
2023-04-11T00:55:10.260Z,45.97
2023-04-11T00:57:37.897Z,43.23
2023-04-11T01:00:07.114Z,42.60
2023-04-11T01:02:34.001Z,41.83
2023-04-11T01:05:01.474Z,45.53
2023-04-11T01:07:29.731Z,47.03
2023-04-11T01:09:57.673Z,39.75
2023-04-11T01:12:25.229Z,41.17
2023-04-11T01:14:52.568Z,44.17
2023-04-11T01:17:21.852Z,40.67
2023-04-11T01:19:49.261Z,42.23
2023-04-11T01:22:18.238Z,44.83
2023-04-11T01:24:45.561Z,42.53
2023-04-11T01:27:12.436Z,43.77
2023-04-11T01:29:39.609Z,46.90
2023-04-11T01:32:06.822Z,42.10
2023-04-11T01:34:35.974Z,44.90
2023-04-11T01:37:02.948Z,45.65
2023-04-11T01:39:30.733Z,48.07
2023-04-11T01:41:59.319Z,42.17
2023-04-11T01:44:27.222Z,45.15
2023-04-11T01:46:54.336Z,41.40
2023-04-11T01:49:21.827Z,44.20
2023-04-11T01:51:48.677Z,43.73
2023-04-11T01:54:16.031Z,39.70
2023-04-11T01:56:42.966Z,37.80
2023-04-11T01:59:10.105Z,38.70
2023-04-11T02:01:37.091Z,45.27
2023-04-11T02:04:04.508Z,41.90
2023-04-11T02:06:32.200Z,39.47
2023-04-11T02:08:59.367Z,40.50
2023-04-11T02:11:26.217Z,38.63
2023-04-11T02:13:53.394Z,37.10
2023-04-11T02:16:20.906Z,36.87
2023-04-11T02:18:48.154Z,34.77
2023-04-11T02:21:15.097Z,34.90
2023-04-11T02:23:42.296Z,36.07
2023-04-11T02:26:09.336Z,33.40
2023-04-11T02:28:36.793Z,44.70
2023-04-11T02:31:04.265Z,39.20
2023-04-11T02:33:32.479Z,48.93
2023-04-11T02:35:59.392Z,46.63
2023-04-11T02:38:26.643Z,43.37
2023-04-11T02:40:53.504Z,43.13
2023-04-11T02:43:20.654Z,39.97
2023-04-11T02:45:47.455Z,48.23
2023-04-11T02:48:14.586Z,49.20
2023-04-11T02:50:41.670Z,40.00
2023-04-11T02:53:08.976Z,39.40
2023-04-11T02:55:35.909Z,44.90
2023-04-11T02:58:03.110Z,44.97
2023-04-11T03:00:30.012Z,53.93
2023-04-11T03:02:57.324Z,54.37
2023-04-11T03:05:24.474Z,52.33
2023-04-11T03:07:51.763Z,55.80
2023-04-11T03:10:18.645Z,51.87
2023-04-11T03:12:45.951Z,46.23
2023-04-11T03:15:15.568Z,57.57
2023-04-11T03:17:42.949Z,55.27
2023-04-11T03:20:11.891Z,60.13
2023-04-11T03:25:07.471Z,54.97
2023-04-11T03:27:34.608Z,50.45
2023-04-11T03:30:01.532Z,48.27
2023-04-11T03:32:28.898Z,52.87
2023-04-11T03:34:55.798Z,49.33
2023-04-11T03:37:22.966Z,55.33
2023-04-11T03:39:49.808Z,241.37
2023-04-11T03:42:16.963Z,499.37
2023-04-11T03:44:43.844Z,319.90
2023-04-11T03:47:11.030Z,151.57
2023-04-11T03:49:37.908Z,187.03
2023-04-11T03:52:07.502Z,71.50
2023-04-11T03:57:01.915Z,66.13
2023-04-11T03:59:29.699Z,80.50
2023-04-11T04:01:56.972Z,91.53
2023-04-11T04:04:23.970Z,287.40
2023-04-11T04:06:51.200Z,164.03
2023-04-11T04:09:18.391Z,299.45
2023-04-11T04:11:45.587Z,430.63
2023-04-11T04:14:12.477Z,222.37
2023-04-11T04:16:39.733Z,268.05
2023-04-11T04:19:06.643Z,129.27
2023-04-11T04:21:38.075Z,66.63
2023-04-11T04:24:05.379Z,55.30
2023-04-11T04:26:32.560Z,68.28
2023-04-11T04:29:04.873Z,45.53
2023-04-11T04:31:36.249Z,43.80
2023-04-11T04:34:08.735Z,43.27
2023-04-11T04:36:49.283Z,48.43
2023-04-11T04:39:19.752Z,81.85
2023-04-11T04:41:58.425Z,142.02
2023-04-11T04:44:25.676Z,32.50
2023-04-11T04:46:54.453Z,43.70
2023-04-11T04:49:21.512Z,72.80
2023-04-11T04:51:49.069Z,65.87
2023-04-11T04:54:19.433Z,74.35
2023-04-11T04:56:48.460Z,91.93
2023-04-11T04:59:16.656Z,110.03
2023-04-11T05:01:44.437Z,68.68
2023-04-11T05:04:11.648Z,161.13
2023-04-11T05:06:39.010Z,97.72
2023-04-11T05:09:06.296Z,109.97
2023-04-11T05:11:34.145Z,76.05
2023-04-11T05:14:01.214Z,141.02
2023-04-11T05:16:28.482Z,56.60
2023-04-11T05:18:55.637Z,35.30
2023-04-11T05:21:22.823Z,44.30
2023-04-11T05:23:49.688Z,50.97
2023-04-11T05:26:16.802Z,87.25
2023-04-11T05:28:43.890Z,56.13
2023-04-11T05:31:12.403Z,41.47
2023-04-11T05:33:40.439Z,52.10
2023-04-11T05:36:08.425Z,53.15
2023-04-11T05:38:35.555Z,52.90
2023-04-11T05:41:02.766Z,45.95
2023-04-11T05:43:29.716Z,29.20
2023-04-11T05:45:57.385Z,40.92
2023-04-11T05:48:24.457Z,35.25
2023-04-11T05:50:52.071Z,58.20
2023-04-11T05:53:19.221Z,27.30
2023-04-11T05:55:46.445Z,31.57
2023-04-11T05:58:13.435Z,32.40
2023-04-11T06:00:40.757Z,42.92
2023-04-11T06:03:10.838Z,37.53
2023-04-11T06:05:39.059Z,25.20
2023-04-11T06:08:07.543Z,30.48
2023-04-11T06:10:35.492Z,20.95
2023-04-11T06:13:02.915Z,27.15
2023-04-11T06:15:30.508Z,32.08
2023-04-11T06:17:57.469Z,23.13
2023-04-11T06:20:25.446Z,35.67
2023-04-11T06:22:52.341Z,20.25
2023-04-11T06:25:20.760Z,32.83
2023-04-11T06:27:48.201Z,20.17
2023-04-11T06:30:15.618Z,29.65
2023-04-11T06:32:42.682Z,30.63
2023-04-11T06:35:10.202Z,53.55
2023-04-11T06:37:37.152Z,46.85
2023-04-11T06:40:08.136Z,27.38
2023-04-11T06:42:34.977Z,26.85
2023-04-11T06:45:02.181Z,31.30
2023-04-11T06:47:29.354Z,37.58
2023-04-11T06:49:56.852Z,23.95
2023-04-11T06:52:24.300Z,22.50
2023-04-11T06:54:52.120Z,25.65
2023-04-11T06:57:19.108Z,18.13
2023-04-11T06:59:46.414Z,21.17
2023-04-11T07:02:13.436Z,20.05
2023-04-11T07:04:41.049Z,30.73
2023-04-11T07:07:08.108Z,13.30
2023-04-11T07:09:36.666Z,19.55
2023-04-11T07:12:03.688Z,17.30
2023-04-11T07:14:31.103Z,19.73
2023-04-11T07:16:57.948Z,18.13
2023-04-11T07:19:25.232Z,15.48
2023-04-11T07:21:52.070Z,15.73
2023-04-11T07:24:19.292Z,16.25
2023-04-11T07:26:48.035Z,15.88
2023-04-11T07:29:15.184Z,17.55
2023-04-11T07:31:42.192Z,15.40
2023-04-11T07:34:10.221Z,19.30
2023-04-11T07:36:37.369Z,17.40
2023-04-11T07:39:09.086Z,14.68
2023-04-11T07:41:39.314Z,15.80
2023-04-11T07:44:07.567Z,19.30
2023-04-11T07:46:34.592Z,18.30
2023-04-11T07:49:01.797Z,18.80
2023-04-11T07:51:28.612Z,17.85
2023-04-11T07:53:56.116Z,15.98
2023-04-11T07:56:23.147Z,14.82
2023-04-11T07:58:50.355Z,12.23
2023-04-11T08:01:26.960Z,20.00
2023-04-11T08:03:56.142Z,20.75
2023-04-11T08:06:23.453Z,22.30
2023-04-11T08:08:51.028Z,29.40
2023-04-11T08:11:18.058Z,18.17
2023-04-11T08:13:45.307Z,14.20
2023-04-11T08:16:15.254Z,19.77
2023-04-11T08:18:42.852Z,13.60
2023-04-11T08:21:11.616Z,14.20
2023-04-11T08:23:39.859Z,13.27
2023-04-11T08:26:07.992Z,16.02
2023-04-11T08:28:35.999Z,13.38
2023-04-11T08:31:04.162Z,15.63
2023-04-11T08:33:31.544Z,16.42
2023-04-11T08:35:58.393Z,15.60
2023-04-11T08:38:25.751Z,15.93
2023-04-11T08:40:53.182Z,15.15
2023-04-11T08:43:20.425Z,17.52
2023-04-11T08:45:47.323Z,19.20
2023-04-11T08:48:14.565Z,18.75
2023-04-11T08:50:44.627Z,17.20
2023-04-11T08:53:12.686Z,17.85
2023-04-11T08:55:47.120Z,22.83
2023-04-11T08:58:14.623Z,20.77
2023-04-11T09:00:41.537Z,21.10
2023-04-11T09:03:10.613Z,18.33
2023-04-11T09:05:40.698Z,17.92
2023-04-11T09:08:10.093Z,18.92
2023-04-11T09:10:38.872Z,22.70
2023-04-11T09:13:26.287Z,17.25
2023-04-11T09:16:10.713Z,16.75
2023-04-11T09:18:47.089Z,18.25
2023-04-11T09:21:16.055Z,16.30
2023-04-11T09:23:43.531Z,17.35
2023-04-11T09:26:11.799Z,13.63
2023-04-11T09:28:53.856Z,15.10
2023-04-11T09:31:22.223Z,13.80
2023-04-11T09:33:58.692Z,14.53
2023-04-11T09:36:29.228Z,15.15
2023-04-11T09:38:57.747Z,14.02
2023-04-11T09:41:34.725Z,15.25
2023-04-11T09:44:02.544Z,16.88
2023-04-11T09:46:29.558Z,14.82
2023-04-11T09:48:57.147Z,17.77
2023-04-11T09:53:55.373Z,15.27
2023-04-11T09:56:24.210Z,15.77
2023-04-11T09:58:52.118Z,13.02
2023-04-11T10:01:20.466Z,13.63
2023-04-11T10:03:51.122Z,14.07
2023-04-11T10:06:38.834Z,13.43
2023-04-11T10:09:11.736Z,13.70
2023-04-11T10:11:45.112Z,17.27
2023-04-11T10:14:37.428Z,15.30
2023-04-11T10:17:21.958Z,15.60
2023-04-11T10:19:54.268Z,14.85
2023-04-11T10:22:46.743Z,12.50
2023-04-11T10:25:26.857Z,10.45
2023-04-11T10:28:01.607Z,12.25
2023-04-11T10:30:41.250Z,13.10
2023-04-11T10:33:17.193Z,13.15
2023-04-11T10:36:05.728Z,9.73
2023-04-11T10:38:46.130Z,12.20
2023-04-11T10:41:17.932Z,12.38
2023-04-11T10:43:47.739Z,12.52
2023-04-11T10:46:22.262Z,12.63
2023-04-11T10:49:02.724Z,12.60
2023-04-11T10:51:31.969Z,11.68
2023-04-11T10:54:00.365Z,11.80
2023-04-11T10:56:43.212Z,11.27
2023-04-11T10:59:32.155Z,12.68
2023-04-11T11:02:01.599Z,11.10
2023-04-11T11:04:33.107Z,12.13
2023-04-11T11:07:07.633Z,11.85
2023-04-11T11:09:35.488Z,9.65
2023-04-11T11:12:13.959Z,7.90
2023-04-11T11:14:44.880Z,14.55
2023-04-11T11:17:14.088Z,8.88
2023-04-11T11:19:48.453Z,7.80
2023-04-11T11:22:17.237Z,8.70
2023-04-11T11:24:44.071Z,8.40
2023-04-11T11:27:22.740Z,9.50
2023-04-11T11:29:50.565Z,11.45
2023-04-11T11:32:24.212Z,5.85
2023-04-11T11:34:52.995Z,7.88
2023-04-11T11:37:21.433Z,7.53
2023-04-11T11:39:49.678Z,7.65
2023-04-11T11:42:17.671Z,7.65
2023-04-11T11:44:44.606Z,7.68
2023-04-11T11:47:15.485Z,8.68
2023-04-11T11:49:46.726Z,9.07
2023-04-11T11:52:37.709Z,6.97
2023-04-11T11:55:10.384Z,6.53
2023-04-11T11:57:45.290Z,6.20
2023-04-11T12:00:13.197Z,9.18
2023-04-11T12:02:44.339Z,10.88
2023-04-11T12:05:12.622Z,10.32
2023-04-11T12:07:40.665Z,9.13
2023-04-11T12:10:11.757Z,6.80
2023-04-11T12:12:41.372Z,4.93
2023-04-11T12:15:11.710Z,11.63
2023-04-11T12:17:39.892Z,6.68
2023-04-11T12:20:11.273Z,5.63
2023-04-11T12:22:38.836Z,5.40
2023-04-11T12:25:14.577Z,6.82
2023-04-11T12:27:43.970Z,8.90
2023-04-11T12:32:38.791Z,8.60
2023-04-11T12:35:06.982Z,42.97
2023-04-11T12:37:34.656Z,12.50
2023-04-11T12:40:02.241Z,7.97
2023-04-11T12:42:29.446Z,13.77
2023-04-11T12:44:56.416Z,9.73
2023-04-11T12:47:23.721Z,9.52
2023-04-11T12:49:50.980Z,6.03
2023-04-11T12:52:18.249Z,7.05
2023-04-11T12:54:45.128Z,6.63
2023-04-11T12:57:12.538Z,6.47
2023-04-11T12:59:39.525Z,8.07
2023-04-11T13:02:07.886Z,6.90
2023-04-11T13:04:35.169Z,6.20
2023-04-11T13:07:04.554Z,9.57
2023-04-11T13:09:32.034Z,13.05
2023-04-11T13:12:01.774Z,14.73
2023-04-11T13:14:28.863Z,10.75
2023-04-11T13:16:56.399Z,8.18
2023-04-11T13:19:24.250Z,8.52
2023-04-11T13:21:51.607Z,8.70
2023-04-11T13:24:18.567Z,7.65
2023-04-11T13:26:45.908Z,12.13
2023-04-11T13:29:12.877Z,12.35
2023-04-11T13:31:40.164Z,8.38
2023-04-11T13:34:07.048Z,8.50
2023-04-11T13:36:34.291Z,8.57
2023-04-11T13:39:01.301Z,9.85
2023-04-11T13:41:28.520Z,10.98
2023-04-11T13:43:56.304Z,9.30
2023-04-11T13:46:23.647Z,12.93
2023-04-11T13:48:50.672Z,8.68
2023-04-11T13:51:17.986Z,12.85
2023-04-11T13:53:44.986Z,7.32
2023-04-11T13:56:12.276Z,13.85
2023-04-11T13:58:39.440Z,7.28
2023-04-11T14:01:06.945Z,7.50
2023-04-11T14:03:34.261Z,6.25
2023-04-11T14:06:02.088Z,8.30
2023-04-11T14:08:29.366Z,10.00
2023-04-11T14:10:56.610Z,8.10
2023-04-11T14:13:23.627Z,8.07
2023-04-11T14:16:04.768Z,6.90
2023-04-11T14:18:35.949Z,8.13
2023-04-11T14:21:05.084Z,8.90
2023-04-11T14:23:32.220Z,10.43
2023-04-11T14:25:59.442Z,5.85
2023-04-11T14:28:26.926Z,14.15
2023-04-11T14:30:56.170Z,6.72
2023-04-11T14:33:23.664Z,7.93
2023-04-11T14:35:52.206Z,7.50
2023-04-11T14:38:19.227Z,8.20
2023-04-11T14:40:46.613Z,8.68
2023-04-11T14:43:13.778Z,12.35
2023-04-11T14:45:41.391Z,9.50
2023-04-11T14:48:08.443Z,12.45
2023-04-11T14:50:35.888Z,12.15
2023-04-11T14:53:03.176Z,14.13
2023-04-11T14:55:30.856Z,14.70
2023-04-11T14:57:57.800Z,13.80
2023-04-11T15:00:25.135Z,10.82
2023-04-11T15:02:54.237Z,14.27
2023-04-11T15:05:23.435Z,12.65
2023-04-11T15:07:52.141Z,14.70
2023-04-11T15:10:26.400Z,10.15
2023-04-11T15:12:53.390Z,7.55
2023-04-11T15:15:20.619Z,13.18
2023-04-11T15:17:49.884Z,10.10
2023-04-11T15:20:17.774Z,9.35
2023-04-11T15:22:46.574Z,11.13
2023-04-11T15:25:16.248Z,17.50
2023-04-11T15:30:11.499Z,13.40
2023-04-11T15:32:45.006Z,13.57
2023-04-11T15:35:12.431Z,12.20
2023-04-11T15:37:39.420Z,13.73
2023-04-11T15:40:07.956Z,11.88
2023-04-11T15:42:35.990Z,13.23
2023-04-11T15:45:03.883Z,13.33
2023-04-11T15:47:31.521Z,8.18
2023-04-11T15:50:01.962Z,8.70
2023-04-11T15:52:28.853Z,11.80
2023-04-11T15:54:56.852Z,13.63
2023-04-11T15:57:23.726Z,10.23
2023-04-11T15:59:50.927Z,12.98
2023-04-11T16:02:17.918Z,13.70
2023-04-11T16:04:47.830Z,10.55
2023-04-11T16:07:18.566Z,10.35
2023-04-11T16:09:46.509Z,10.93
2023-04-11T16:12:13.671Z,13.35
2023-04-11T16:14:41.032Z,19.17
2023-04-11T16:17:07.922Z,17.23
2023-04-11T16:19:35.103Z,19.17
2023-04-11T16:22:02.102Z,12.90
2023-04-11T16:24:29.950Z,13.32
2023-04-11T16:26:59.625Z,15.02
2023-04-11T16:29:26.870Z,14.88
2023-04-11T16:31:53.804Z,30.77
2023-04-11T16:34:21.043Z,41.97
2023-04-11T16:36:47.980Z,30.00
2023-04-11T16:39:15.251Z,33.00
2023-04-11T16:41:42.244Z,25.13
2023-04-11T16:44:13.345Z,22.38
2023-04-11T16:46:41.764Z,20.95
2023-04-11T16:49:09.760Z,34.15
2023-04-11T16:51:37.425Z,45.05
2023-04-11T16:54:09.693Z,44.35
2023-04-11T16:56:37.457Z,26.48
2023-04-11T16:59:05.156Z,24.35
2023-04-11T17:01:32.225Z,26.98
2023-04-11T17:04:01.361Z,21.40
2023-04-11T17:06:28.735Z,27.02
2023-04-11T17:08:57.740Z,18.42
2023-04-11T17:11:25.773Z,21.98
2023-04-11T17:13:56.122Z,15.82
2023-04-11T17:16:23.304Z,15.98
2023-04-11T17:18:50.485Z,13.98
2023-04-11T17:21:17.832Z,13.13
2023-04-11T17:23:46.684Z,17.88
2023-04-11T17:26:14.150Z,12.90
2023-04-11T17:28:42.437Z,16.70
2023-04-11T17:31:17.566Z,13.27
2023-04-11T17:33:45.221Z,17.45
2023-04-11T17:36:13.049Z,18.15
2023-04-11T17:38:42.231Z,18.30
2023-04-11T17:43:39.362Z,15.60
2023-04-11T17:46:07.478Z,12.68
2023-04-11T17:48:34.936Z,13.98
2023-04-11T17:51:04.240Z,14.80
2023-04-11T17:53:31.917Z,18.10
2023-04-11T17:56:03.414Z,14.85
2023-04-11T17:58:30.940Z,11.23
2023-04-11T18:00:57.827Z,16.67
2023-04-11T18:03:26.089Z,11.80
2023-04-11T18:05:54.713Z,13.45
2023-04-11T18:08:35.479Z,28.25
2023-04-11T18:11:10.013Z,13.38
2023-04-11T18:13:37.202Z,15.52
2023-04-11T18:16:04.368Z,11.38
2023-04-11T18:18:31.655Z,11.38
2023-04-11T18:21:06.648Z,8.32
2023-04-11T18:23:35.326Z,8.88
2023-04-11T18:26:02.317Z,9.80
2023-04-11T18:28:29.685Z,10.70
2023-04-11T18:30:56.910Z,13.85
2023-04-11T18:33:24.367Z,11.77
2023-04-11T18:35:51.867Z,11.45
2023-04-11T18:38:19.327Z,9.23
2023-04-11T18:40:46.392Z,9.32
2023-04-11T18:43:13.933Z,17.23
2023-04-11T18:45:42.579Z,12.57
2023-04-11T18:48:10.761Z,15.98
2023-04-11T18:50:39.019Z,18.52
2023-04-11T18:53:10.413Z,16.65
2023-04-11T18:55:40.633Z,38.22
2023-04-11T18:58:09.879Z,35.03
2023-04-11T19:00:39.025Z,39.45
2023-04-11T19:03:14.904Z,37.72
2023-04-11T19:05:44.020Z,48.53
2023-04-11T19:08:11.573Z,39.85
2023-04-11T19:10:38.565Z,42.67
2023-04-11T19:13:06.376Z,56.28
2023-04-11T19:15:33.417Z,51.55
2023-04-11T19:18:01.851Z,48.67
2023-04-11T19:20:29.671Z,79.87
2023-04-11T19:22:57.279Z,76.05
2023-04-11T19:25:24.439Z,104.30
2023-04-11T19:27:51.745Z,90.28
2023-04-11T19:30:18.707Z,90.85
2023-04-11T19:32:47.680Z,74.82
2023-04-11T19:35:15.094Z,92.45
2023-04-11T19:37:42.791Z,100.93
2023-04-11T19:40:16.813Z,96.47
2023-04-11T19:42:44.962Z,91.88
2023-04-11T19:45:12.357Z,82.93
2023-04-11T19:47:42.835Z,90.22
2023-04-11T19:50:14.329Z,88.60
2023-04-11T19:52:42.901Z,75.57
2023-04-11T19:55:11.322Z,87.40
2023-04-11T19:57:39.145Z,83.72
2023-04-11T20:00:12.240Z,72.95
2023-04-11T20:02:44.927Z,76.03
2023-04-11T20:05:14.133Z,64.63
2023-04-11T20:10:10.947Z,71.77
2023-04-11T20:12:38.270Z,73.38
2023-04-11T20:15:05.693Z,75.45
2023-04-11T20:17:33.347Z,80.72
2023-04-11T20:20:05.740Z,81.78
2023-04-11T20:22:33.236Z,78.70
2023-04-11T20:25:00.196Z,72.72
2023-04-11T20:27:28.341Z,69.57
2023-04-11T20:29:56.757Z,76.35
2023-04-11T20:32:24.078Z,71.05
2023-04-11T20:34:51.199Z,71.68
2023-04-11T20:37:19.630Z,71.53
2023-04-11T20:39:46.800Z,68.88
2023-04-11T20:42:13.983Z,76.33
2023-04-11T20:44:41.802Z,67.82
2023-04-11T20:47:09.299Z,64.55
2023-04-11T20:49:36.376Z,61.53
2023-04-11T20:52:03.851Z,70.95
2023-04-11T20:54:30.840Z,75.88
2023-04-11T20:56:58.078Z,70.35
2023-04-11T20:59:25.012Z,75.53
2023-04-11T21:01:53.739Z,87.93
2023-04-11T21:04:21.996Z,84.65
2023-04-11T21:06:50.004Z,83.85
2023-04-11T21:09:17.476Z,81.63
2023-04-11T21:11:44.640Z,76.22
2023-04-11T21:14:11.559Z,76.88
2023-04-11T21:16:39.888Z,68.03
2023-04-11T21:19:06.793Z,67.07
2023-04-11T21:21:34.280Z,64.53
2023-04-11T21:24:01.989Z,63.17
2023-04-11T21:26:29.261Z,66.57
2023-04-11T21:28:56.198Z,82.07
2023-04-11T21:31:23.469Z,82.93
2023-04-11T21:33:50.559Z,79.80
2023-04-11T21:36:17.860Z,75.17
2023-04-11T21:38:44.808Z,83.73
2023-04-11T21:41:12.000Z,83.83
2023-04-11T21:43:39.142Z,85.03
2023-04-11T21:46:06.914Z,91.43
2023-04-11T21:48:33.789Z,61.50
2023-04-11T21:51:03.519Z,63.27
2023-04-11T21:53:30.538Z,58.90
2023-04-11T21:55:57.907Z,67.43
2023-04-11T21:58:29.568Z,60.55
2023-04-11T22:00:57.236Z,62.63
2023-04-11T22:03:24.586Z,52.30
2023-04-11T22:05:52.606Z,53.33
2023-04-11T22:08:20.345Z,50.45
2023-04-11T22:10:48.695Z,48.95
2023-04-11T22:13:17.390Z,37.93
2023-04-11T22:15:45.877Z,30.52
2023-04-11T22:18:13.243Z,24.07
2023-04-11T22:20:44.254Z,46.75
2023-04-11T22:23:13.303Z,40.28
2023-04-11T22:28:15.721Z,19.92
2023-04-11T22:30:44.050Z,27.47
2023-04-11T22:33:13.828Z,32.72
2023-04-11T22:35:44.856Z,34.45
2023-04-11T22:38:11.812Z,23.98
2023-04-11T22:40:40.273Z,30.48
2023-04-11T22:43:07.299Z,20.95
2023-04-11T22:45:36.060Z,27.58
2023-04-11T22:48:04.214Z,22.58
2023-04-11T22:50:38.076Z,19.42
2023-04-11T22:53:05.751Z,16.13
2023-04-11T22:55:34.445Z,12.85
2023-04-11T22:58:04.476Z,12.05
2023-04-11T23:00:38.298Z,12.25
2023-04-11T23:03:07.531Z,11.15
2023-04-11T23:08:04.075Z,10.18
2023-04-11T23:10:32.124Z,14.63
2023-04-11T23:12:59.021Z,11.40
2023-04-11T23:15:26.704Z,12.95
2023-04-11T23:17:53.977Z,14.73
2023-04-11T23:20:22.146Z,13.80
2023-04-11T23:22:49.087Z,14.25
2023-04-11T23:25:17.046Z,16.48
2023-04-11T23:27:45.238Z,19.60
2023-04-11T23:30:13.165Z,19.23
2023-04-11T23:32:40.925Z,22.58
2023-04-11T23:35:08.749Z,19.45
2023-04-11T23:37:35.798Z,13.05
2023-04-11T23:40:10.141Z,15.20
2023-04-11T23:42:38.482Z,15.25
2023-04-11T23:45:10.729Z,16.98
2023-04-11T23:47:38.273Z,15.32
2023-04-11T23:50:05.880Z,15.38
2023-04-11T23:52:33.785Z,15.23
2023-04-11T23:55:00.953Z,16.33
2023-04-11T23:57:27.938Z,16.23
2023-04-11T23:59:55.191Z,17.52
